^^

..:: Storico WU ::.. Logo MeteoMincio




  Full-screen


Lo storico viene creato da WUnderground con i dati che la stazione Meteomincio invia dal 15 maggio 2010. L' aggiornamento viene fatto ogni 5 minuti circa, tuttavia possono esserci intervalli più ampi a causa di errori, interruzioni di servizio o problemi nell' invio tramite FTP.

Storico stazione MeteoMincio
 
Giorno Sommario per Ottobre 21, 2017 Unità:  Metrico    Inglese   Entrambi
« Precedente Giorno
Prossimo Giorno »
Giorno Settimana Mese Anno Custom
  Corrente: Max: Min: Media:
Temperatura: 16.4 °C 16.4 °C 10.6 °C 13 °C
Dew Point: 13.2 °C 13.2 °C 9.7 °C 11.5 °C
Humidità: 81 % 94 % 80 % 91 %
Velocità vento: 38.9 km/h 38.9 km/h 38.9 km/h 38.9 km/h
Raffica: 38.9 km/h 38.9 km/h - -
Direzione:East - - WSW
Pressione: 1020.2 hPa 1021.6 hPa 1020.2 hPa -
Precipitazioni: 0.0 mm      
Historical Graphs
 
 
Tabulato Dati per Ottobre 21, 2017
Ora Temperatura Dew Point Pressione Direzione Velocità vento Raffica Umidità Intensità pioggia (oraria) Info solare Situazione
00:04 11.0 °C 10.1 °C 1021.6 hPa SSW 38.9 km/h   94 % 0.0 mm 0.0 W/m2 SCT
00:09 10.8 °C 9.9 °C 1021.6 hPa SSW 38.9 km/h   94 % 0.0 mm 0.0 W/m2 SCT
00:14 10.8 °C 9.8 °C 1021.6 hPa SSW 38.9 km/h 38.9 km/h 94 % 0.0 mm 0.0 W/m2 SCT
00:19 10.8 °C 9.9 °C 1021.6 hPa SSW 38.9 km/h   94 % 0.0 mm 0.0 W/m2 SCT
00:24 10.8 °C 9.9 °C 1021.6 hPa SSW 38.9 km/h   94 % 0.0 mm 0.0 W/m2 SCT
00:29 10.8 °C 9.8 °C 1021.6 hPa SSW 38.9 km/h   94 % 0.0 mm 0.0 W/m2 SCT
00:34 10.7 °C 9.8 °C 1021.6 hPa SSW 38.9 km/h   94 % 0.0 mm 0.0 W/m2 SCT
00:39 10.8 °C 9.8 °C 1021.6 hPa SSW 38.9 km/h   94 % 0.0 mm 0.0 W/m2 SCT
00:45 10.8 °C 9.8 °C 1021.6 hPa SSW 38.9 km/h   94 % 0.0 mm 0.0 W/m2 SCT
00:50 10.7 °C 9.7 °C 1021.6 hPa SSW 38.9 km/h   94 % 0.0 mm 0.0 W/m2 SCT
00:54 10.7 °C 9.7 °C 1021.6 hPa SSW 38.9 km/h   94 % 0.0 mm 0.0 W/m2 SCT
00:59 10.6 °C 9.7 °C 1021.2 hPa SSW 38.9 km/h   94 % 0.0 mm 0.0 W/m2 SCT
01:04 10.7 °C 9.7 °C 1021.2 hPa SSW 38.9 km/h   94 % 0.0 mm 0.0 W/m2 BKN
01:09 10.7 °C 9.7 °C 1021.2 hPa SSW 38.9 km/h   94 % 0.0 mm 0.0 W/m2 BKN
01:11 10.7 °C 9.7 °C 1021.2 hPa SSW 38.9 km/h   94 % 0.0 mm 0.0 W/m2 BKN
01:16 10.7 °C 9.7 °C 1021.2 hPa SSW 38.9 km/h   94 % 0.0 mm 0.0 W/m2 BKN
01:21 10.7 °C 9.8 °C 1021.2 hPa SSW 38.9 km/h   94 % 0.0 mm 0.0 W/m2 BKN
01:26 10.8 °C 9.8 °C 1021.2 hPa SSW 38.9 km/h   94 % 0.0 mm 0.0 W/m2 BKN
01:31 10.9 °C 9.9 °C 1021.2 hPa SSW 38.9 km/h   94 % 0.0 mm 0.0 W/m2 BKN
01:36 10.9 °C 10.0 °C 1021.2 hPa SSW 38.9 km/h   94 % 0.0 mm 0.0 W/m2 SCT
01:41 11.0 °C 10.1 °C 1021.2 hPa SSW 38.9 km/h   94 % 0.0 mm 0.0 W/m2 SCT
01:46 11.2 °C 10.2 °C 1021.2 hPa SSW 38.9 km/h   94 % 0.0 mm 0.0 W/m2 SCT
01:51 11.3 °C 10.4 °C 1021.2 hPa SSW 38.9 km/h   94 % 0.0 mm 0.0 W/m2 SCT
01:56 11.4 °C 10.5 °C 1021.2 hPa SSW 38.9 km/h   94 % 0.0 mm 0.0 W/m2 SCT
02:01 11.5 °C 10.6 °C 1021.2 hPa SSW 38.9 km/h   94 % 0.0 mm 0.0 W/m2 SCT
02:06 11.5 °C 10.6 °C 1021.2 hPa SSW 38.9 km/h   94 % 0.0 mm 0.0 W/m2 BKN
02:11 11.7 °C 10.8 °C 1021.2 hPa SSW 38.9 km/h   94 % 0.0 mm 0.0 W/m2 BKN
02:16 11.8 °C 10.8 °C 1021.2 hPa SSW 38.9 km/h   94 % 0.0 mm 0.0 W/m2 BKN
02:21 11.8 °C 10.9 °C 1021.2 hPa SSW 38.9 km/h   94 % 0.0 mm 0.0 W/m2 BKN
02:26 11.9 °C 11.0 °C 1021.2 hPa SSW 38.9 km/h   94 % 0.0 mm 0.0 W/m2 BKN
02:31 11.8 °C 10.9 °C 1021.2 hPa SSW 38.9 km/h   94 % 0.0 mm 0.0 W/m2 BKN
02:36 11.7 °C 10.8 °C 1021.2 hPa SSW 38.9 km/h   94 % 0.0 mm 0.0 W/m2 BKN
02:41 11.5 °C 10.6 °C 1021.2 hPa SSW 38.9 km/h 38.9 km/h 94 % 0.0 mm 0.0 W/m2 BKN
02:46 11.4 °C 10.5 °C 1020.9 hPa SSW 38.9 km/h 38.9 km/h 94 % 0.0 mm 0.0 W/m2 BKN
02:51 11.5 °C 10.6 °C 1020.9 hPa SSW 38.9 km/h 38.9 km/h 94 % 0.0 mm 0.0 W/m2 BKN
02:56 11.6 °C 10.6 °C 1020.9 hPa SSW 38.9 km/h 38.9 km/h 94 % 0.0 mm 0.0 W/m2 BKN
03:01 11.7 °C 10.7 °C 1020.9 hPa SSW 38.9 km/h 38.9 km/h 94 % 0.0 mm 0.0 W/m2 BKN
03:06 11.7 °C 10.8 °C 1020.9 hPa SSW 38.9 km/h 38.9 km/h 94 % 0.0 mm 0.0 W/m2 BKN
03:11 11.8 °C 10.8 °C 1020.9 hPa SSW 38.9 km/h 38.9 km/h 94 % 0.0 mm 0.0 W/m2 BKN
03:16 11.8 °C 10.8 °C 1020.9 hPa SSW 38.9 km/h 38.9 km/h 94 % 0.0 mm 0.0 W/m2 BKN
03:21 11.8 °C 10.8 °C 1020.9 hPa SSW 38.9 km/h   94 % 0.0 mm 0.0 W/m2 BKN
03:26 11.9 °C 10.9 °C 1020.9 hPa SSW 38.9 km/h   94 % 0.0 mm 0.0 W/m2 BKN
03:31 11.9 °C 10.9 °C 1020.9 hPa SSW 38.9 km/h 38.9 km/h 94 % 0.0 mm 0.0 W/m2 BKN
03:36 11.8 °C 10.9 °C 1020.9 hPa SSW 38.9 km/h 38.9 km/h 94 % 0.0 mm 0.0 W/m2 BKN
03:41 11.8 °C 10.8 °C 1020.9 hPa SSW 38.9 km/h 38.9 km/h 94 % 0.0 mm 0.0 W/m2 BKN
03:46 11.9 °C 10.9 °C 1020.9 hPa SSW 38.9 km/h   94 % 0.0 mm 0.0 W/m2 BKN
03:51 11.9 °C 11.0 °C 1020.9 hPa SSW 38.9 km/h   94 % 0.0 mm 0.0 W/m2 BKN
03:56 12.0 °C 11.1 °C 1020.9 hPa SSW 38.9 km/h 38.9 km/h 94 % 0.0 mm 0.0 W/m2 BKN
04:01 11.9 °C 11.0 °C 1020.9 hPa SSW 38.9 km/h 38.9 km/h 94 % 0.0 mm 0.0 W/m2 BKN
04:06 11.9 °C 11.0 °C 1020.9 hPa SSW 38.9 km/h 38.9 km/h 94 % 0.0 mm 0.0 W/m2 BKN
04:11 12.1 °C 11.1 °C 1020.9 hPa SSW 38.9 km/h 38.9 km/h 94 % 0.0 mm 0.0 W/m2 BKN
04:16 11.9 °C 11.0 °C 1020.9 hPa SSW 38.9 km/h 38.9 km/h 94 % 0.0 mm 0.0 W/m2 BKN
04:21 11.9 °C 11.0 °C 1020.9 hPa SW 38.9 km/h 38.9 km/h 94 % 0.0 mm 0.0 W/m2 BKN
04:26 12.1 °C 11.1 °C 1020.9 hPa WSW 38.9 km/h 38.9 km/h 94 % 0.0 mm 0.0 W/m2 BKN
04:31 12.1 °C 11.1 °C 1020.9 hPa WSW 38.9 km/h 38.9 km/h 94 % 0.0 mm 0.0 W/m2 BKN
04:36 12.1 °C 11.2 °C 1020.9 hPa West 38.9 km/h 38.9 km/h 94 % 0.0 mm 0.0 W/m2 BKN
04:41 12.2 °C 11.1 °C 1020.5 hPa West 38.9 km/h 38.9 km/h 93 % 0.0 mm 0.0 W/m2 BKN
04:46 12.2 °C 11.1 °C 1020.9 hPa West 38.9 km/h 38.9 km/h 93 % 0.0 mm 0.0 W/m2 BKN
04:51 12.2 °C 11.1 °C 1020.5 hPa West 38.9 km/h 38.9 km/h 93 % 0.0 mm 0.0 W/m2 BKN
04:57 12.2 °C 11.1 °C 1020.5 hPa West 38.9 km/h 38.9 km/h 93 % 0.0 mm 0.0 W/m2 BKN
05:02 12.2 °C 11.1 °C 1020.5 hPa West 38.9 km/h   93 % 0.0 mm 0.0 W/m2 BKN
05:07 12.2 °C 11.1 °C 1020.5 hPa West 38.9 km/h 38.9 km/h 93 % 0.0 mm 0.0 W/m2 BKN
05:12 12.2 °C 11.1 °C 1020.5 hPa West 38.9 km/h   93 % 0.0 mm 0.0 W/m2 BKN
05:20 12.2 °C 11.1 °C 1020.5 hPa West 38.9 km/h   93 % 0.0 mm 0.0 W/m2 BKN
05:21 12.2 °C 11.1 °C 1020.5 hPa West 38.9 km/h   93 % 0.0 mm 0.0 W/m2 BKN
05:26 12.2 °C 11.1 °C 1020.5 hPa WSW 38.9 km/h 38.9 km/h 93 % 0.0 mm 0.0 W/m2 BKN
05:27 12.1 °C 10.9 °C 1020.5 hPa WSW 38.9 km/h   93 % 0.0 mm 0.0 W/m2 BKN
05:28 12.1 °C 10.9 °C 1020.5 hPa WSW 38.9 km/h   93 % 0.0 mm 0.0 W/m2 BKN
05:29 12.1 °C 10.9 °C 1020.5 hPa WSW 38.9 km/h   93 % 0.0 mm 0.0 W/m2 BKN
05:34 12.0 °C 11.1 °C 1020.5 hPa WSW 38.9 km/h   94 % 0.0 mm 0.0 W/m2 BKN
05:39 12.1 °C 11.1 °C 1020.5 hPa WSW 38.9 km/h   94 % 0.0 mm 0.0 W/m2 BKN
05:44 12.1 °C 11.1 °C 1020.5 hPa WSW 38.9 km/h   94 % 0.0 mm 0.0 W/m2 BKN
05:49 12.1 °C 11.2 °C 1020.5 hPa WSW 38.9 km/h 38.9 km/h 94 % 0.0 mm 0.0 W/m2 BKN
05:54 12.2 °C 11.2 °C 1020.5 hPa WSW 38.9 km/h 38.9 km/h 94 % 0.0 mm 0.0 W/m2 BKN
05:59 12.2 °C 11.2 °C 1020.5 hPa WSW 38.9 km/h   94 % 0.0 mm 0.0 W/m2 BKN
06:04 12.2 °C 11.1 °C 1020.5 hPa WSW 38.9 km/h   93 % 0.0 mm 0.0 W/m2 BKN
06:09 12.3 °C 11.3 °C 1020.5 hPa WSW 38.9 km/h 38.9 km/h 94 % 0.0 mm 0.0 W/m2 BKN
06:14 12.3 °C 11.3 °C 1020.5 hPa WSW 38.9 km/h 38.9 km/h 94 % 0.0 mm 0.0 W/m2 BKN
06:19 12.3 °C 11.2 °C 1020.5 hPa WSW 38.9 km/h   93 % 0.0 mm 0.0 W/m2 BKN
06:24 12.3 °C 11.2 °C 1020.5 hPa WSW 38.9 km/h 38.9 km/h 93 % 0.0 mm 0.0 W/m2 BKN
06:29 12.3 °C 11.2 °C 1020.5 hPa WSW 38.9 km/h 38.9 km/h 93 % 0.0 mm 0.0 W/m2 BKN
06:34 12.3 °C 11.2 °C 1020.5 hPa WSW 38.9 km/h   93 % 0.0 mm 0.0 W/m2 SCT
06:39 12.4 °C 11.3 °C 1020.5 hPa WSW 38.9 km/h   93 % 0.0 mm 0.0 W/m2 SCT
06:44 12.4 °C 11.3 °C 1020.5 hPa WSW 38.9 km/h 38.9 km/h 93 % 0.0 mm 0.0 W/m2 SCT
06:49 12.4 °C 11.3 °C 1020.5 hPa WSW 38.9 km/h 38.9 km/h 93 % 0.0 mm 0.0 W/m2 SCT
06:54 12.4 °C 11.3 °C 1020.5 hPa WSW 38.9 km/h 38.9 km/h 93 % 0.0 mm 0.0 W/m2 SCT
06:59 12.4 °C 11.3 °C 1020.5 hPa WSW 38.9 km/h 38.9 km/h 93 % 0.0 mm 0.0 W/m2 SCT
07:04 12.4 °C 11.3 °C 1020.2 hPa WSW 38.9 km/h 38.9 km/h 93 % 0.0 mm 0.0 W/m2 BKN
07:06 12.4 °C 11.3 °C 1020.2 hPa WSW 38.9 km/h 38.9 km/h 93 % 0.0 mm 0.0 W/m2 BKN
07:11 12.4 °C 11.3 °C 1020.2 hPa WSW 38.9 km/h   93 % 0.0 mm 0.0 W/m2 BKN
07:16 12.5 °C 11.4 °C 1020.5 hPa WSW 38.9 km/h 38.9 km/h 93 % 0.0 mm 0.0 W/m2 BKN
07:21 12.6 °C 11.4 °C 1020.5 hPa WSW 38.9 km/h 38.9 km/h 93 % 0.0 mm 0.0 W/m2 BKN
07:26 12.6 °C 11.4 °C 1020.5 hPa WSW 38.9 km/h 38.9 km/h 93 % 0.0 mm 0.0 W/m2 BKN
07:31 12.5 °C 11.4 °C 1020.5 hPa WSW 38.9 km/h   93 % 0.0 mm 0.0 W/m2 BKN
07:36 12.6 °C 11.4 °C 1020.5 hPa WSW 38.9 km/h 38.9 km/h 93 % 0.0 mm 0.0 W/m2 BKN
07:41 12.6 °C 11.5 °C 1020.5 hPa WSW 38.9 km/h 38.9 km/h 93 % 0.0 mm 0.0 W/m2 BKN
07:46 12.6 °C 11.5 °C 1020.5 hPa WSW 38.9 km/h 38.9 km/h 93 % 0.0 mm 0.0 W/m2 BKN
07:51 12.7 °C 11.4 °C 1020.5 hPa WSW 38.9 km/h 38.9 km/h 92 % 0.0 mm 5.0 W/m2 BKN
07:56 12.7 °C 11.4 °C 1020.5 hPa West 38.9 km/h 38.9 km/h 92 % 0.0 mm 11.0 W/m2 BKN
08:01 12.8 °C 11.5 °C 1020.5 hPa WNW 38.9 km/h 38.9 km/h 92 % 0.0 mm 18.0 W/m2 BKN
08:06 12.8 °C 11.6 °C 1020.5 hPa WNW 38.9 km/h 38.9 km/h 92 % 0.0 mm 23.0 W/m2 BKN
08:11 12.9 °C 11.6 °C 1020.5 hPa WNW 38.9 km/h 38.9 km/h 92 % 0.0 mm 26.0 W/m2 BKN
08:16 12.9 °C 11.7 °C 1020.9 hPa NW 38.9 km/h 38.9 km/h 92 % 0.0 mm 21.0 W/m2 BKN
08:21 12.9 °C 11.7 °C 1020.9 hPa NW 38.9 km/h 38.9 km/h 92 % 0.0 mm 16.0 W/m2 BKN
08:26 13.0 °C 11.7 °C 1020.9 hPa NW 38.9 km/h 38.9 km/h 92 % 0.0 mm 16.0 W/m2 BKN
08:31 13.1 °C 11.8 °C 1020.9 hPa NW 38.9 km/h   92 % 0.0 mm 18.0 W/m2 BKN
08:36 13.1 °C 11.8 °C 1020.9 hPa NW 38.9 km/h   92 % 0.0 mm 26.0 W/m2 BKN
08:41 13.1 °C 11.8 °C 1020.9 hPa NW 38.9 km/h   92 % 0.0 mm 30.0 W/m2 BKN
08:46 13.2 °C 11.9 °C 1020.9 hPa NW 38.9 km/h   92 % 0.0 mm 33.0 W/m2 BKN
08:51 13.2 °C 11.9 °C 1020.9 hPa NW 38.9 km/h   92 % 0.0 mm 35.0 W/m2 BKN
08:56 13.2 °C 11.7 °C 1021.2 hPa NW 38.9 km/h   91 % 0.0 mm 35.0 W/m2 BKN
09:01 13.3 °C 11.8 °C 1021.2 hPa NW 38.9 km/h   91 % 0.0 mm 35.0 W/m2 BKN
09:06 13.3 °C 11.8 °C 1021.2 hPa NW 38.9 km/h 38.9 km/h 91 % 0.0 mm 35.0 W/m2 BKN
09:11 13.3 °C 11.8 °C 1021.2 hPa NW 38.9 km/h 38.9 km/h 91 % 0.0 mm 35.0 W/m2 BKN
09:16 13.3 °C 11.9 °C 1021.2 hPa NW 38.9 km/h   91 % 0.0 mm 37.0 W/m2 BKN
09:21 13.4 °C 11.9 °C 1021.2 hPa NW 38.9 km/h   91 % 0.0 mm 40.0 W/m2 BKN
09:26 13.4 °C 11.9 °C 1021.2 hPa NW 38.9 km/h 38.9 km/h 91 % 0.0 mm 40.0 W/m2 BKN
09:31 13.4 °C 12.0 °C 1021.2 hPa NW 38.9 km/h   91 % 0.0 mm 40.0 W/m2 BKN
09:36 13.5 °C 12.1 °C 1021.2 hPa NW 38.9 km/h 38.9 km/h 91 % 0.0 mm 33.0 W/m2 BKN
09:41 13.6 °C 12.2 °C 1021.2 hPa NW 38.9 km/h   91 % 0.0 mm 33.0 W/m2 BKN
09:46 13.7 °C 12.1 °C 1021.2 hPa NW 38.9 km/h   90 % 0.0 mm 33.0 W/m2 BKN
09:51 13.7 °C 12.1 °C 1021.2 hPa NW 38.9 km/h 38.9 km/h 90 % 0.0 mm 30.0 W/m2 BKN
09:56 13.8 °C 12.2 °C 1021.2 hPa NW 38.9 km/h 38.9 km/h 90 % 0.0 mm 32.0 W/m2 BKN
10:01 13.8 °C 12.2 °C 1021.2 hPa NW 38.9 km/h 38.9 km/h 90 % 0.0 mm 35.0 W/m2 BKN
10:06 13.9 °C 12.3 °C 1021.2 hPa NW 38.9 km/h 38.9 km/h 90 % 0.0 mm 40.0 W/m2 BKN
10:11 13.9 °C 12.3 °C 1021.2 hPa NW 38.9 km/h 38.9 km/h 90 % 0.0 mm 47.0 W/m2 BKN
10:16 14.1 °C 12.4 °C 1021.2 hPa NW 38.9 km/h 38.9 km/h 90 % 0.0 mm 49.0 W/m2 BKN
10:21 14.1 °C 12.3 °C 1021.2 hPa NW 38.9 km/h 38.9 km/h 89 % 0.0 mm 44.0 W/m2 BKN
10:26 14.2 °C 12.9 °C 1021.2 hPa NW 38.9 km/h 38.9 km/h 92 % 0.0 mm 62.0 W/m2 BKN
10:31 14.3 °C 12.5 °C 1021.2 hPa NW 38.9 km/h 38.9 km/h 89 % 0.0 mm 63.0 W/m2 BKN
10:36 14.3 °C 12.6 °C 1021.6 hPa NW 38.9 km/h   89 % 0.0 mm 69.0 W/m2 BKN
10:41 14.3 °C 12.6 °C 1021.2 hPa NW 38.9 km/h 38.9 km/h 89 % 0.0 mm 95.0 W/m2 BKN
10:46 14.5 °C 12.6 °C 1021.2 hPa NW 38.9 km/h 38.9 km/h 88 % 0.0 mm 114.0 W/m2 BKN
10:51 14.6 °C 12.7 °C 1021.2 hPa NW 38.9 km/h 38.9 km/h 88 % 0.0 mm 120.0 W/m2 BKN
10:56 14.8 °C 12.6 °C 1021.6 hPa NW 38.9 km/h 38.9 km/h 87 % 0.0 mm 128.0 W/m2 BKN
11:01 14.9 °C 12.6 °C 1021.6 hPa NW 38.9 km/h 38.9 km/h 86 % 0.0 mm 134.0 W/m2 BKN
11:06 14.9 °C 12.6 °C 1021.6 hPa NW 38.9 km/h 38.9 km/h 86 % 0.0 mm 127.0 W/m2 BKN
11:11 15.1 °C 12.8 °C 1021.6 hPa WNW 38.9 km/h 38.9 km/h 86 % 0.0 mm 114.0 W/m2 BKN
11:16 15.1 °C 12.6 °C 1021.6 hPa WNW 38.9 km/h 38.9 km/h 85 % 0.0 mm 116.0 W/m2 BKN
11:21 15.2 °C 12.7 °C 1021.6 hPa WNW 38.9 km/h 38.9 km/h 85 % 0.0 mm 144.0 W/m2 BKN
11:26 15.3 °C 12.8 °C 1021.2 hPa NW 38.9 km/h 38.9 km/h 85 % 0.0 mm 167.0 W/m2 BKN
11:31 15.5 °C 12.8 °C 1021.2 hPa NW 38.9 km/h 38.9 km/h 84 % 0.0 mm 197.0 W/m2 BKN
11:36 15.6 °C 12.9 °C 1021.2 hPa WNW 38.9 km/h 38.9 km/h 84 % 0.0 mm 214.0 W/m2 BKN
11:41 15.6 °C 12.6 °C 1021.2 hPa WNW 38.9 km/h 38.9 km/h 82 % 0.0 mm 251.0 W/m2 BKN
11:46 15.7 °C 12.8 °C 1021.2 hPa WNW 38.9 km/h 38.9 km/h 83 % 0.0 mm 278.0 W/m2 BKN
11:51 15.9 °C 13.0 °C 1021.2 hPa WNW 38.9 km/h 38.9 km/h 83 % 0.0 mm 257.0 W/m2 BKN
11:56 15.9 °C 12.8 °C 1021.2 hPa WNW 38.9 km/h 38.9 km/h 82 % 0.0 mm 267.0 W/m2 BKN
12:01 15.9 °C 12.9 °C 1021.2 hPa WNW 38.9 km/h 38.9 km/h 82 % 0.0 mm 237.0 W/m2 BKN
12:06 16.2 °C 12.9 °C 1021.2 hPa WNW 38.9 km/h 38.9 km/h 81 % 0.0 mm 223.0 W/m2 BKN
12:11 16.3 °C 12.9 °C 1021.2 hPa North 38.9 km/h 38.9 km/h 80 % 0.0 mm 216.0 W/m2 BKN
12:16 16.2 °C 12.8 °C 1021.2 hPa North 38.9 km/h 38.9 km/h 80 % 0.0 mm 183.0 W/m2 BKN
12:21 16.2 °C 12.9 °C 1021.2 hPa NE 38.9 km/h 38.9 km/h 81 % 0.0 mm 158.0 W/m2 BKN
12:26 16.2 °C 12.9 °C 1021.2 hPa NE 38.9 km/h   81 % 0.0 mm 179.0 W/m2 BKN
12:31 16.0 °C 12.7 °C 1020.9 hPa NE 38.9 km/h 38.9 km/h 81 % 0.0 mm 163.0 W/m2 BKN
12:36 16.1 °C 12.8 °C 1020.9 hPa NE 38.9 km/h 38.9 km/h 81 % 0.0 mm 155.0 W/m2 BKN
12:41 16.0 °C 12.7 °C 1020.9 hPa ENE 38.9 km/h 38.9 km/h 81 % 0.0 mm 128.0 W/m2 BKN
12:46 15.9 °C 12.6 °C 1020.9 hPa East 38.9 km/h 38.9 km/h 81 % 0.0 mm 114.0 W/m2 BKN
12:51 15.9 °C 12.7 °C 1020.9 hPa East 38.9 km/h 38.9 km/h 81 % 0.0 mm 104.0 W/m2 BKN
12:56 15.9 °C 12.6 °C 1020.9 hPa East 38.9 km/h   81 % 0.0 mm 107.0 W/m2 BKN
13:01 15.9 °C 12.8 °C 1020.9 hPa East 38.9 km/h 38.9 km/h 82 % 0.0 mm 111.0 W/m2 BKN
13:06 15.9 °C 12.7 °C 1020.9 hPa East 38.9 km/h   81 % 0.0 mm 74.0 W/m2 BKN
13:11 15.9 °C 12.8 °C 1020.9 hPa East 38.9 km/h   82 % 0.0 mm 77.0 W/m2 BKN
13:16 16.0 °C 12.9 °C 1020.9 hPa East 38.9 km/h 38.9 km/h 82 % 0.0 mm 67.0 W/m2 BKN
13:21 16.0 °C 12.9 °C 1020.5 hPa East 38.9 km/h   82 % 0.0 mm 62.0 W/m2 BKN
13:26 15.9 °C 12.6 °C 1020.5 hPa East 38.9 km/h 38.9 km/h 81 % 0.0 mm 67.0 W/m2 BKN
13:31 16.0 °C 12.9 °C 1020.5 hPa East 38.9 km/h 38.9 km/h 82 % 0.0 mm 76.0 W/m2 BKN
13:36 16.0 °C 12.7 °C 1020.2 hPa East 38.9 km/h   81 % 0.0 mm 90.0 W/m2 BKN
13:41 16.0 °C 12.7 °C 1020.2 hPa East 38.9 km/h   81 % 0.0 mm 116.0 W/m2 BKN
13:46 16.3 °C 13.0 °C 1020.2 hPa East 38.9 km/h 38.9 km/h 81 % 0.0 mm 137.0 W/m2 BKN
13:51 16.4 °C 13.2 °C 1020.2 hPa East 38.9 km/h 38.9 km/h 81 % 0.0 mm 162.0 W/m2 BKN
Stazione Meteorologica MeteoMincio Rivalta s/M (MN)
Con i complimenti di Weather Underground - 3.25 mb


METEO PILLOLE
La più disastrosa inondazione causata da cicloni
Bangladesh
Nel novembre 1970 un ciclone nel Golfo del Bangladesh uccise circa 300.000 persone.

Share
Non seguire questo link o sarai bannato dal sito!